Thursday, July 19, 2018, 5:53 AM GMT
Back to Local

CYQB, Quebec, Que

Location: , , Canada Lat: 46.8
Local Time: 5:53 AM GMT ( 5:53 GMT) Lon: -71.383
Time Zone: GMT Elev: 229 ft

Show me the last for .
Show Decoded

2018-07-19 05:00 METAR CYQB 190500Z 01003KT 310V040 15SM SKC 14/08 A2998 RMK SLP153 =
2018-07-19 04:00 METAR CYQB 190400Z 01003KT 340V050 15SM SKC 15/08 A2997 RMK SLP151 DENSITY ALT
                 300FT =
2018-07-19 03:00 METAR CYQB 190300Z VRB02KT 15SM SKC 12/11 A2996 RMK SLP148 =
2018-07-19 02:00 METAR CYQB 190200Z 26002KT 15SM FEW064 13/09 A2996 RMK SC1 SLP147 =
2018-07-19 01:00 METAR CYQB 190100Z 27003KT 20SM SKC 15/11 A2994 RMK SLP141 DENSITY ALT 300FT =
2018-07-19 00:00 METAR CYQB 190000Z 27005KT 30SM FEW064 18/10 A2993 RMK SC1 SC TR SLP137 DENSITY
                 ALT 700FT =
2018-07-18 23:00 METAR CYQB 182300Z 27005KT 30SM FEW064 22/09 A2992 RMK SC2 SLP134 DENSITY ALT
                 1100FT =
2018-07-18 22:00 METAR CYQB 182200Z 29008KT 250V320 30SM FEW064 22/07 A2990 RMK SC2 SLP129
                 DENSITY ALT 1200FT =
2018-07-18 21:00 METAR CYQB 182100Z 31006KT 260V010 30SM SCT064 22/09 A2991 RMK SC3 SLP131
                 DENSITY ALT 1200FT =
2018-07-18 20:00 METAR CYQB 182000Z 34003KT 270V050 30SM SCT062 22/11 A2991 RMK SC3 SLP130
                 DENSITY ALT 1200FT =
2018-07-18 19:00 METAR CYQB 181900Z 29009KT 260V340 30SM SCT060 22/10 A2990 RMK CU4 SLP127
                 DENSITY ALT 1200FT =
2018-07-18 18:00 METAR CYQB 181800Z 32008KT 260V340 15SM BKN062 21/08 A2990 RMK CU5 SLP126
                 DENSITY ALT 1100FT =
2018-07-18 17:00 METAR CYQB 181700Z 28007KT 220V020 15SM BKN054 21/09 A2990 RMK CU5 SLP128
                 DENSITY ALT 1000FT =
2018-07-18 16:00 METAR CYQB 181600Z 32007KT 240V360 15SM SCT050 20/08 A2991 RMK CU4 SLP131
                 DENSITY ALT 900FT =
2018-07-18 15:00 METAR CYQB 181500Z 28005KT 260V330 15SM SCT035 19/08 A2991 RMK CU3 SLP130
                 DENSITY ALT 900FT =
2018-07-18 14:00 METAR CYQB 181400Z 32007G16KT 260V030 15SM FEW035 18/08 A2990 RMK CU1 SLP127
                 DENSITY ALT 700FT =
2018-07-18 13:00 METAR CYQB 181300Z 33005KT 280V020 15SM FEW035 FEW060 17/09 A2990 RMK CU1SC1 SC
                 TR SLP125 DENSITY ALT 700FT =
2018-07-18 12:00 METAR CYQB 181200Z 32005KT 280V030 15SM FEW032 FEW062 16/09 A2989 RMK SC1SC1 SC
                 TR SLP122 DENSITY ALT 500FT =
2018-07-18 11:00 METAR CYQB 181100Z 30004KT 270V340 15SM FEW030 FEW060 15/09 A2987 RMK SC1SC1 SC
                 TR SLP117 DENSITY ALT 400FT =
2018-07-18 10:00 METAR CYQB 181000Z 27004KT 240V300 15SM FEW030 FEW063 14/10 A2985 RMK SC1SC1 SC
                 TR SLP109 DENSITY ALT 300FT =
2018-07-18 09:00 METAR CYQB 180900Z VRB02KT 30SM FEW030 FEW060 14/10 A2982 RMK SC1SC1 SC TR
                 SLP100 DENSITY ALT 400FT =
2018-07-18 08:00 METAR CYQB 180800Z 32006G16KT 290V020 15SM FEW063 15/11 A2981 RMK SC1 SLP095
                 DENSITY ALT 500FT =
2018-07-18 07:00 METAR CYQB 180700Z 31004KT 260V340 15SM SCT063 SCT080 17/11 A2980 RMK SC3AC1
                 SLP092 DENSITY ALT 700FT =
2018-07-18 06:00 METAR CYQB 180600Z 33003KT 270V010 15SM FEW035 FEW080 17/13 A2978 RMK SC1AC1
                 SLP086 DENSITY ALT 700FT =

Support USWX by starting your Amazon purchase here.